createdAt,value
2018-12-02T00:00:00.525Z,993.82
2018-12-02T00:01:00.520Z,993.85
2018-12-02T00:02:00.515Z,993.81
2018-12-02T00:03:00.508Z,993.87
2018-12-02T00:04:00.502Z,993.78
2018-12-02T00:05:00.496Z,993.79
2018-12-02T00:06:00.493Z,993.79
2018-12-02T00:07:00.488Z,993.71
2018-12-02T00:08:00.483Z,993.69
2018-12-02T00:09:00.477Z,993.76
2018-12-02T00:10:00.471Z,993.69
2018-12-02T00:11:00.466Z,993.71
2018-12-02T00:12:00.460Z,993.67
2018-12-02T00:13:00.455Z,993.67
2018-12-02T00:14:00.451Z,993.60
2018-12-02T00:15:00.444Z,993.59
2018-12-02T00:16:00.438Z,993.62
2018-12-02T00:17:00.436Z,993.56
2018-12-02T00:18:00.427Z,993.62
2018-12-02T00:19:00.421Z,993.62
2018-12-02T00:20:00.420Z,993.63
2018-12-02T00:21:00.412Z,993.58
2018-12-02T00:22:00.406Z,993.59
2018-12-02T00:23:00.401Z,993.54
2018-12-02T00:24:00.396Z,993.50
2018-12-02T00:25:00.391Z,993.55
2018-12-02T00:26:00.386Z,993.58
2018-12-02T00:27:00.380Z,993.52
2018-12-02T00:28:00.373Z,993.51
2018-12-02T00:29:00.371Z,993.53
2018-12-02T00:30:00.364Z,993.50
2018-12-02T00:31:00.358Z,993.47
2018-12-02T00:32:00.354Z,993.46
2018-12-02T00:33:00.349Z,993.45
2018-12-02T00:34:00.344Z,993.40
2018-12-02T00:35:00.338Z,993.41
2018-12-02T00:36:00.333Z,993.45
2018-12-02T00:37:00.327Z,993.39
2018-12-02T00:38:00.325Z,993.37
2018-12-02T00:39:00.315Z,993.40
2018-12-02T00:40:00.311Z,993.37
2018-12-02T00:41:00.310Z,993.34
2018-12-02T00:42:00.301Z,993.36
2018-12-02T00:43:00.298Z,993.31
2018-12-02T00:44:00.290Z,993.26
2018-12-02T00:45:00.286Z,993.27
2018-12-02T00:46:00.281Z,993.15
2018-12-02T00:47:00.275Z,993.20
2018-12-02T00:48:00.270Z,993.15
2018-12-02T00:49:00.265Z,993.16
2018-12-02T00:50:00.259Z,993.15
2018-12-02T00:51:00.255Z,993.11
2018-12-02T00:52:00.248Z,993.11
2018-12-02T00:53:00.243Z,993.13
2018-12-02T00:54:00.239Z,993.18
2018-12-02T00:55:00.231Z,993.15
2018-12-02T00:56:00.228Z,993.10
2018-12-02T00:57:00.222Z,993.15
2018-12-02T00:58:00.218Z,993.08
2018-12-02T00:59:00.212Z,993.08
2018-12-02T01:00:00.206Z,993.04
2018-12-02T01:01:00.200Z,993.14
2018-12-02T01:02:00.195Z,993.10
2018-12-02T01:03:00.190Z,993.04
2018-12-02T01:04:00.189Z,993.06
2018-12-02T01:05:00.181Z,993.02
2018-12-02T01:06:00.175Z,992.99
2018-12-02T01:07:00.170Z,993.00
2018-12-02T01:08:00.165Z,992.92
2018-12-02T01:09:00.159Z,992.91
2018-12-02T01:10:00.154Z,992.84
2018-12-02T01:11:00.149Z,992.84
2018-12-02T01:12:00.142Z,992.86
2018-12-02T01:13:00.139Z,992.83
2018-12-02T01:14:00.132Z,992.77
2018-12-02T01:15:00.126Z,992.77
2018-12-02T01:16:00.126Z,992.79
2018-12-02T01:17:00.116Z,992.76
2018-12-02T01:18:00.115Z,992.76
2018-12-02T01:19:00.107Z,992.74
2018-12-02T01:20:00.102Z,992.68
2018-12-02T01:21:00.100Z,992.69
2018-12-02T01:22:00.091Z,992.62
2018-12-02T01:23:00.086Z,992.62
2018-12-02T01:24:00.080Z,992.59
2018-12-02T01:25:00.076Z,992.60
2018-12-02T01:26:00.070Z,992.58
2018-12-02T01:27:00.065Z,992.57
2018-12-02T01:28:00.060Z,992.58
2018-12-02T01:29:00.056Z,992.52
2018-12-02T01:30:00.051Z,992.55
2018-12-02T01:31:00.044Z,992.51
2018-12-02T01:32:00.039Z,992.48
2018-12-02T01:33:00.034Z,992.47
2018-12-02T01:34:00.028Z,992.51
2018-12-02T01:35:00.024Z,992.52
2018-12-02T01:36:00.022Z,992.47
2018-12-02T01:37:00.014Z,992.49
2018-12-02T01:38:00.008Z,992.44
2018-12-02T01:39:00.002Z,992.46
2018-12-02T01:39:59.999Z,992.44
2018-12-02T01:40:59.994Z,992.43
2018-12-02T01:41:59.989Z,992.44
2018-12-02T01:42:59.982Z,992.37
2018-12-02T01:43:59.978Z,992.36
2018-12-02T01:44:59.972Z,992.36
2018-12-02T01:45:59.967Z,992.30
2018-12-02T01:46:59.961Z,992.35
2018-12-02T01:47:59.958Z,992.35
2018-12-02T01:48:59.952Z,992.31
2018-12-02T01:49:59.948Z,992.29
2018-12-02T01:50:59.944Z,992.26
2018-12-02T01:51:59.939Z,992.30
2018-12-02T01:52:59.932Z,992.26
2018-12-02T01:53:59.927Z,992.26
2018-12-02T01:54:59.927Z,992.24
2018-12-02T01:55:59.918Z,992.17
2018-12-02T01:56:59.912Z,992.22
2018-12-02T01:57:59.907Z,992.20
2018-12-02T01:58:59.901Z,992.16
2018-12-02T01:59:59.899Z,992.12
2018-12-02T02:00:59.892Z,992.15
2018-12-02T02:01:59.888Z,992.13
2018-12-02T02:02:59.881Z,992.14
2018-12-02T02:03:59.875Z,992.13
2018-12-02T02:04:59.870Z,992.19
2018-12-02T02:05:59.866Z,992.13
2018-12-02T02:06:59.860Z,992.05
2018-12-02T02:07:59.855Z,992.01
2018-12-02T02:08:59.851Z,992.02
2018-12-02T02:09:59.846Z,992.02
2018-12-02T02:10:59.841Z,992.03
2018-12-02T02:11:59.836Z,991.99
2018-12-02T02:12:59.830Z,991.99
2018-12-02T02:13:59.825Z,991.91
2018-12-02T02:14:59.818Z,991.89
2018-12-02T02:15:59.816Z,991.85
2018-12-02T02:16:59.810Z,991.79
2018-12-02T02:17:59.805Z,991.79
2018-12-02T02:18:59.798Z,991.77
2018-12-02T02:19:59.795Z,991.79
2018-12-02T02:20:59.789Z,991.76
2018-12-02T02:21:59.785Z,991.66
2018-12-02T02:22:59.779Z,991.65
2018-12-02T02:23:59.774Z,991.67
2018-12-02T02:24:59.769Z,991.72
2018-12-02T02:25:59.764Z,991.68
2018-12-02T02:26:59.759Z,991.60
2018-12-02T02:27:59.754Z,991.62
2018-12-02T02:28:59.749Z,991.60
2018-12-02T02:29:59.744Z,991.58
2018-12-02T02:30:59.738Z,991.55
2018-12-02T02:31:59.733Z,991.51
2018-12-02T02:32:59.728Z,991.53
2018-12-02T02:33:59.723Z,991.53
2018-12-02T02:34:59.718Z,991.51
2018-12-02T02:35:59.713Z,991.55
2018-12-02T02:36:59.708Z,991.56
2018-12-02T02:37:59.702Z,991.57
2018-12-02T02:38:59.699Z,991.59
2018-12-02T02:39:59.694Z,991.52
2018-12-02T02:40:59.688Z,991.53
2018-12-02T02:41:59.684Z,991.54
2018-12-02T02:42:59.676Z,991.48
2018-12-02T02:43:59.674Z,991.46
2018-12-02T02:44:59.667Z,991.45
2018-12-02T02:45:59.661Z,991.44
2018-12-02T02:46:59.657Z,991.33
2018-12-02T02:47:59.653Z,991.31
2018-12-02T02:48:59.646Z,991.31
2018-12-02T02:49:59.642Z,991.28
2018-12-02T02:50:59.636Z,991.32
2018-12-02T02:51:59.633Z,991.28
2018-12-02T02:52:59.650Z,991.29
2018-12-02T02:53:59.625Z,991.27
2018-12-02T02:54:59.616Z,991.24
2018-12-02T02:55:59.611Z,991.21
2018-12-02T02:56:59.607Z,991.25
2018-12-02T02:57:59.601Z,991.21
2018-12-02T02:58:59.597Z,991.28
2018-12-02T02:59:59.592Z,991.29
2018-12-02T03:00:59.588Z,991.23
2018-12-02T03:01:59.583Z,991.28
2018-12-02T03:02:59.575Z,991.26
2018-12-02T03:03:59.572Z,991.19
2018-12-02T03:04:59.566Z,991.26
2018-12-02T03:05:59.561Z,991.22
2018-12-02T03:06:59.554Z,991.25
2018-12-02T03:07:59.551Z,991.21
2018-12-02T03:08:59.546Z,991.25
2018-12-02T03:09:59.541Z,991.20
2018-12-02T03:10:59.536Z,991.20
2018-12-02T03:11:59.531Z,991.19
2018-12-02T03:12:59.529Z,991.17
2018-12-02T03:13:59.520Z,991.19
2018-12-02T03:14:59.514Z,991.21
2018-12-02T03:15:59.510Z,991.15
2018-12-02T03:16:59.505Z,991.16
2018-12-02T03:17:59.502Z,991.18
2018-12-02T03:18:59.519Z,991.16
2018-12-02T03:19:59.489Z,991.17
2018-12-02T03:20:59.485Z,991.16
2018-12-02T03:21:59.480Z,991.19
2018-12-02T03:22:59.481Z,991.17
2018-12-02T03:23:59.469Z,991.16
2018-12-02T03:24:59.465Z,991.17
2018-12-02T03:25:59.459Z,991.17
2018-12-02T03:26:59.454Z,991.23
2018-12-02T03:27:59.450Z,991.17
2018-12-02T03:28:59.446Z,991.19
2018-12-02T03:29:59.440Z,991.17
2018-12-02T03:30:59.436Z,991.18
2018-12-02T03:31:59.431Z,991.14
2018-12-02T03:32:59.426Z,991.16
2018-12-02T03:33:59.420Z,991.15
2018-12-02T03:34:59.415Z,991.14
2018-12-02T03:35:59.410Z,991.06
2018-12-02T03:36:59.404Z,991.09
2018-12-02T03:37:59.401Z,991.10
2018-12-02T03:38:59.395Z,991.08
2018-12-02T03:39:59.389Z,991.09
2018-12-02T03:40:59.385Z,991.03
2018-12-02T03:41:59.379Z,991.04
2018-12-02T03:42:59.374Z,991.02
2018-12-02T03:43:59.369Z,991.02
2018-12-02T03:44:59.371Z,991.03
2018-12-02T03:45:59.358Z,991.00
2018-12-02T03:46:59.353Z,990.98
2018-12-02T03:47:59.350Z,990.95
2018-12-02T03:48:59.346Z,990.96
2018-12-02T03:49:59.338Z,990.94
2018-12-02T03:50:59.334Z,990.96
2018-12-02T03:51:59.328Z,990.94
2018-12-02T03:52:59.323Z,990.92
2018-12-02T03:53:59.319Z,990.90
2018-12-02T03:54:59.312Z,990.90
2018-12-02T03:55:59.306Z,990.87
2018-12-02T03:56:59.301Z,990.81
2018-12-02T03:57:59.298Z,990.79
2018-12-02T03:58:59.292Z,990.77
2018-12-02T03:59:59.288Z,990.73
2018-12-02T04:00:59.284Z,990.72
2018-12-02T04:01:59.278Z,990.70
2018-12-02T04:02:59.274Z,990.69
2018-12-02T04:03:59.266Z,990.64
2018-12-02T04:04:59.261Z,990.61
2018-12-02T04:05:59.259Z,990.59
2018-12-02T04:06:59.252Z,990.55
2018-12-02T04:07:59.248Z,990.49
2018-12-02T04:08:59.241Z,990.49
2018-12-02T04:09:59.236Z,990.44
2018-12-02T04:10:59.229Z,990.45
2018-12-02T04:11:59.226Z,990.43
2018-12-02T04:12:59.220Z,990.40
2018-12-02T04:13:59.217Z,990.47
2018-12-02T04:14:59.210Z,990.39
2018-12-02T04:15:59.204Z,990.35
2018-12-02T04:16:59.199Z,990.42
2018-12-02T04:17:59.196Z,990.36
2018-12-02T04:18:59.188Z,990.31
2018-12-02T04:19:59.185Z,990.33
2018-12-02T04:20:59.178Z,990.27
2018-12-02T04:21:59.175Z,990.22
2018-12-02T04:22:59.171Z,990.22
2018-12-02T04:23:59.164Z,990.20
2018-12-02T04:24:59.158Z,990.21
2018-12-02T04:25:59.152Z,990.19
2018-12-02T04:26:59.147Z,990.23
2018-12-02T04:27:59.142Z,990.20
2018-12-02T04:28:59.136Z,990.16
2018-12-02T04:29:59.131Z,990.16
2018-12-02T04:30:59.124Z,990.10
2018-12-02T04:31:59.122Z,990.12
2018-12-02T04:32:59.115Z,990.12
2018-12-02T04:33:59.112Z,990.09
2018-12-02T04:34:59.107Z,990.01
2018-12-02T04:35:59.099Z,990.05
2018-12-02T04:36:59.095Z,990.04
2018-12-02T04:37:59.089Z,990.05
2018-12-02T04:38:59.084Z,990.02
2018-12-02T04:39:59.078Z,989.99
2018-12-02T04:40:59.073Z,990.01
2018-12-02T04:41:59.067Z,990.02
2018-12-02T04:42:59.061Z,989.98
2018-12-02T04:43:59.055Z,989.98
2018-12-02T04:44:59.052Z,990.04
2018-12-02T04:45:59.046Z,990.03
2018-12-02T04:46:59.041Z,989.97
2018-12-02T04:47:59.036Z,989.97
2018-12-02T04:48:59.030Z,989.97
2018-12-02T04:49:59.024Z,989.93
2018-12-02T04:50:59.020Z,989.92
2018-12-02T04:51:59.012Z,989.90
2018-12-02T04:52:59.009Z,989.93
2018-12-02T04:53:59.004Z,989.92
2018-12-02T04:54:58.996Z,989.88
2018-12-02T04:55:58.992Z,989.93
2018-12-02T04:56:58.991Z,989.90
2018-12-02T04:57:58.984Z,989.87
2018-12-02T04:58:58.977Z,989.90
2018-12-02T04:59:58.972Z,989.83
2018-12-02T05:00:58.966Z,989.85
2018-12-02T05:01:58.960Z,989.89
2018-12-02T05:02:58.955Z,989.84
2018-12-02T05:03:58.951Z,989.82
2018-12-02T05:04:58.951Z,989.77
2018-12-02T05:05:58.940Z,989.81
2018-12-02T05:06:58.932Z,989.77
2018-12-02T05:07:58.929Z,989.71
2018-12-02T05:08:58.925Z,989.73
2018-12-02T05:09:58.920Z,989.71
2018-12-02T05:10:58.913Z,989.72
2018-12-02T05:11:58.908Z,989.65
2018-12-02T05:12:58.904Z,989.67
2018-12-02T05:13:58.897Z,989.70
2018-12-02T05:14:58.891Z,989.64
2018-12-02T05:15:58.887Z,989.66
2018-12-02T05:16:58.881Z,989.62
2018-12-02T05:17:58.878Z,989.60
2018-12-02T05:18:58.869Z,989.56
2018-12-02T05:19:58.866Z,989.58
2018-12-02T05:20:58.861Z,989.58
2018-12-02T05:21:58.856Z,989.59
2018-12-02T05:22:58.856Z,989.60
2018-12-02T05:23:58.845Z,989.54
2018-12-02T05:24:58.845Z,989.56
2018-12-02T05:25:58.835Z,989.52
2018-12-02T05:26:58.829Z,989.53
2018-12-02T05:27:58.824Z,989.46
2018-12-02T05:28:58.818Z,989.51
2018-12-02T05:29:58.818Z,989.49
2018-12-02T05:30:58.808Z,989.47
2018-12-02T05:31:58.803Z,989.46
2018-12-02T05:32:58.798Z,989.43
2018-12-02T05:33:58.794Z,989.42
2018-12-02T05:34:58.786Z,989.41
2018-12-02T05:35:58.782Z,989.39
2018-12-02T05:36:58.777Z,989.40
2018-12-02T05:37:58.772Z,989.35
2018-12-02T05:38:58.764Z,989.34
2018-12-02T05:39:58.762Z,989.32
2018-12-02T05:40:58.754Z,989.34
2018-12-02T05:41:58.750Z,989.32
2018-12-02T05:42:58.743Z,989.30
2018-12-02T05:43:58.739Z,989.32
2018-12-02T05:44:58.734Z,989.30
2018-12-02T05:45:58.731Z,989.28
2018-12-02T05:46:58.723Z,989.30
2018-12-02T05:47:58.718Z,989.27
2018-12-02T05:48:58.716Z,989.25
2018-12-02T05:49:58.708Z,989.24
2018-12-02T05:50:58.703Z,989.25
2018-12-02T05:51:58.696Z,989.22
2018-12-02T05:52:58.692Z,989.23
2018-12-02T05:53:58.689Z,989.21
2018-12-02T05:54:58.682Z,989.14
2018-12-02T05:55:58.675Z,989.24
2018-12-02T05:56:58.672Z,989.22
2018-12-02T05:57:58.667Z,989.22
2018-12-02T05:58:58.660Z,989.20
2018-12-02T05:59:58.656Z,989.14
2018-12-02T06:00:58.651Z,989.07
2018-12-02T06:01:58.646Z,989.11
2018-12-02T06:02:58.639Z,989.10
2018-12-02T06:03:58.633Z,989.10
2018-12-02T06:04:58.630Z,989.03
2018-12-02T06:05:58.624Z,989.05
2018-12-02T06:06:58.621Z,989.02
2018-12-02T06:07:58.615Z,989.02
2018-12-02T06:08:58.609Z,989.01
2018-12-02T06:09:58.608Z,988.94
2018-12-02T06:10:58.598Z,988.93
2018-12-02T06:11:58.593Z,988.92
2018-12-02T06:12:58.587Z,988.95
2018-12-02T06:13:58.583Z,988.91
2018-12-02T06:14:58.578Z,988.91
2018-12-02T06:15:58.573Z,988.91
2018-12-02T06:16:58.567Z,988.89
2018-12-02T06:17:58.563Z,988.87
2018-12-02T06:18:58.557Z,988.91
2018-12-02T06:20:04.487Z,988.87
2018-12-02T06:20:58.546Z,988.88
2018-12-02T06:21:58.541Z,988.81
2018-12-02T06:22:58.535Z,988.82
2018-12-02T06:23:58.531Z,988.84
2018-12-02T06:24:58.526Z,988.85
2018-12-02T06:25:58.522Z,988.82
2018-12-02T06:26:58.518Z,988.84
2018-12-02T06:27:58.515Z,988.85
2018-12-02T06:28:58.508Z,988.86
2018-12-02T06:29:58.503Z,988.80
2018-12-02T06:30:58.498Z,988.79
2018-12-02T06:31:58.490Z,988.74
2018-12-02T06:32:58.485Z,988.74
2018-12-02T06:33:58.480Z,988.75
2018-12-02T06:34:58.474Z,988.77
2018-12-02T06:35:58.469Z,988.74
2018-12-02T06:36:58.465Z,988.73
2018-12-02T06:37:58.461Z,988.75
2018-12-02T06:38:58.456Z,988.80
2018-12-02T06:39:58.449Z,988.77
2018-12-02T06:40:58.446Z,988.77
2018-12-02T06:41:58.439Z,988.79
2018-12-02T06:42:58.433Z,988.75
2018-12-02T06:43:58.430Z,988.82
2018-12-02T06:44:58.425Z,988.78
2018-12-02T06:45:58.420Z,988.86
2018-12-02T06:46:58.414Z,988.78
2018-12-02T06:47:58.408Z,988.81
2018-12-02T06:48:58.404Z,988.80
2018-12-02T06:49:58.399Z,988.76
2018-12-02T06:50:58.395Z,988.76
2018-12-02T06:51:58.389Z,988.74
2018-12-02T06:52:58.384Z,988.74
2018-12-02T06:53:58.378Z,988.67
2018-12-02T06:54:58.373Z,988.69
2018-12-02T06:55:58.366Z,988.65
2018-12-02T06:56:58.362Z,988.68
2018-12-02T06:57:58.358Z,988.65
2018-12-02T06:58:58.352Z,988.62
2018-12-02T06:59:58.348Z,988.62
2018-12-02T07:00:58.341Z,988.59
2018-12-02T07:01:58.339Z,988.56
2018-12-02T07:02:58.334Z,988.53
2018-12-02T07:03:58.327Z,988.56
2018-12-02T07:04:58.322Z,988.49
2018-12-02T07:05:58.318Z,988.49
2018-12-02T07:06:58.311Z,988.46
2018-12-02T07:07:58.307Z,988.48
2018-12-02T07:08:58.303Z,988.48
2018-12-02T07:09:58.299Z,988.48
2018-12-02T07:10:58.297Z,988.48
2018-12-02T07:11:58.287Z,988.47
2018-12-02T07:12:58.284Z,988.45
2018-12-02T07:13:58.278Z,988.44
2018-12-02T07:14:58.271Z,988.43
2018-12-02T07:15:58.266Z,988.37
2018-12-02T07:16:58.262Z,988.36
2018-12-02T07:17:58.256Z,988.34
2018-12-02T07:18:58.252Z,988.34
2018-12-02T07:19:58.249Z,988.36
2018-12-02T07:20:58.242Z,988.33
2018-12-02T07:21:58.238Z,988.33
2018-12-02T07:22:58.232Z,988.38
2018-12-02T07:23:58.226Z,988.35
2018-12-02T07:24:58.223Z,988.35
2018-12-02T07:25:58.217Z,988.32
2018-12-02T07:26:58.211Z,988.34
2018-12-02T07:27:58.207Z,988.30
2018-12-02T07:28:58.202Z,988.32
2018-12-02T07:29:58.198Z,988.32
2018-12-02T07:30:58.192Z,988.28
2018-12-02T07:31:58.186Z,988.30
2018-12-02T07:32:58.182Z,988.32
2018-12-02T07:33:58.177Z,988.28
2018-12-02T07:34:58.171Z,988.26
2018-12-02T07:35:58.167Z,988.27
2018-12-02T07:36:58.162Z,988.25
2018-12-02T07:37:58.158Z,988.26
2018-12-02T07:38:58.153Z,988.28
2018-12-02T07:39:58.148Z,988.25
2018-12-02T07:40:58.142Z,988.27
2018-12-02T07:41:58.137Z,988.23
2018-12-02T07:42:58.132Z,988.29
2018-12-02T07:43:58.127Z,988.22
2018-12-02T07:44:58.123Z,988.19
2018-12-02T07:45:58.119Z,988.18
2018-12-02T07:46:58.113Z,988.18
2018-12-02T07:47:58.107Z,988.19
2018-12-02T07:48:58.106Z,988.13
2018-12-02T07:49:58.098Z,988.21
2018-12-02T07:50:58.092Z,988.15
2018-12-02T07:51:58.087Z,988.10
2018-12-02T07:52:58.082Z,988.11
2018-12-02T07:53:58.078Z,988.10
2018-12-02T07:54:58.072Z,988.12
2018-12-02T07:55:58.067Z,988.06
2018-12-02T07:56:58.063Z,988.12
2018-12-02T07:57:58.059Z,988.05
2018-12-02T07:58:58.053Z,988.04
2018-12-02T07:59:58.047Z,988.10
2018-12-02T08:00:58.043Z,988.03
2018-12-02T08:01:58.039Z,988.05
2018-12-02T08:02:58.032Z,988.07
2018-12-02T08:03:58.028Z,988.04
2018-12-02T08:04:58.023Z,988.10
2018-12-02T08:05:58.019Z,988.09
2018-12-02T08:06:58.013Z,988.06
2018-12-02T08:07:58.009Z,988.02
2018-12-02T08:08:58.004Z,987.98
2018-12-02T08:09:57.999Z,987.95
2018-12-02T08:10:57.994Z,987.94
2018-12-02T08:11:57.987Z,987.92
2018-12-02T08:12:57.984Z,987.91
2018-12-02T08:13:57.979Z,987.91
2018-12-02T08:14:57.972Z,987.92
2018-12-02T08:15:57.968Z,987.94
2018-12-02T08:16:57.964Z,987.97
2018-12-02T08:17:57.961Z,987.97
2018-12-02T08:18:57.954Z,987.97
2018-12-02T08:19:57.948Z,987.86
2018-12-02T08:20:57.944Z,987.87
2018-12-02T08:21:57.939Z,987.85
2018-12-02T08:22:57.934Z,987.88
2018-12-02T08:23:57.978Z,987.93
2018-12-02T08:24:57.924Z,987.93
2018-12-02T08:25:57.920Z,987.92
2018-12-02T08:26:57.915Z,987.96
2018-12-02T08:27:57.910Z,987.89
2018-12-02T08:28:57.904Z,987.96
2018-12-02T08:29:57.899Z,987.91
2018-12-02T08:30:57.899Z,987.92
2018-12-02T08:31:57.890Z,987.93
2018-12-02T08:32:57.885Z,987.91
2018-12-02T08:33:57.882Z,987.95
2018-12-02T08:34:57.877Z,987.94
2018-12-02T08:35:57.870Z,987.90
2018-12-02T08:36:57.866Z,987.85
2018-12-02T08:37:57.861Z,987.85
2018-12-02T08:38:57.854Z,987.83
2018-12-02T08:39:57.852Z,987.92
2018-12-02T08:40:57.847Z,987.87
2018-12-02T08:41:57.842Z,987.91
2018-12-02T08:42:57.837Z,987.85
2018-12-02T08:43:57.832Z,987.83
2018-12-02T08:44:57.827Z,987.80
2018-12-02T08:45:57.823Z,987.79
2018-12-02T08:46:57.834Z,987.83
2018-12-02T08:47:57.812Z,987.84
2018-12-02T08:48:57.807Z,987.84
2018-12-02T08:49:57.802Z,987.83
2018-12-02T08:50:57.798Z,987.83
2018-12-02T08:51:57.794Z,987.82
2018-12-02T08:52:57.790Z,987.84
2018-12-02T08:53:57.786Z,987.81
2018-12-02T08:54:57.778Z,987.81
2018-12-02T08:55:57.777Z,987.82
2018-12-02T08:56:57.769Z,987.82
2018-12-02T08:57:57.764Z,987.83
2018-12-02T08:58:57.760Z,987.77
2018-12-02T08:59:57.756Z,987.79
2018-12-02T09:00:57.751Z,987.77
2018-12-02T09:01:57.747Z,987.76
2018-12-02T09:02:57.740Z,987.82
2018-12-02T09:03:57.735Z,987.80
2018-12-02T09:04:57.731Z,987.83
2018-12-02T09:05:57.727Z,987.84
2018-12-02T09:06:57.720Z,987.80
2018-12-02T09:07:57.717Z,987.83
2018-12-02T09:08:57.713Z,987.81
2018-12-02T09:09:59.643Z,987.84
2018-12-02T09:10:57.727Z,987.78
2018-12-02T09:11:57.698Z,987.80
2018-12-02T09:12:57.693Z,987.85
2018-12-02T09:13:57.690Z,987.78
2018-12-02T09:14:57.683Z,987.76
2018-12-02T09:15:57.680Z,987.76
2018-12-02T09:16:57.676Z,987.77
2018-12-02T09:17:57.673Z,987.77
2018-12-02T09:18:57.666Z,987.76
2018-12-02T09:19:57.661Z,987.71
2018-12-02T09:20:57.657Z,987.77
2018-12-02T09:21:57.653Z,987.76
2018-12-02T09:22:57.649Z,987.76
2018-12-02T09:23:57.643Z,987.80
2018-12-02T09:24:57.638Z,987.68
2018-12-02T09:25:57.633Z,987.76
2018-12-02T09:26:57.630Z,987.71
2018-12-02T09:27:57.675Z,987.72
2018-12-02T09:28:57.663Z,987.78
2018-12-02T09:29:57.614Z,987.73
2018-12-02T09:30:57.609Z,987.73
2018-12-02T09:31:57.608Z,987.74
2018-12-02T09:32:57.602Z,987.71
2018-12-02T09:33:57.598Z,987.69
2018-12-02T09:34:57.592Z,987.76
2018-12-02T09:35:57.587Z,987.73
2018-12-02T09:36:58.099Z,987.78
2018-12-02T09:37:57.582Z,987.76
2018-12-02T09:38:57.574Z,987.76
2018-12-02T09:39:57.569Z,987.78
2018-12-02T09:40:57.566Z,987.75
2018-12-02T09:41:57.561Z,987.80
2018-12-02T09:42:57.555Z,987.77
2018-12-02T09:43:57.552Z,987.75
2018-12-02T09:44:57.547Z,987.74
2018-12-02T09:45:57.542Z,987.73
2018-12-02T09:46:57.538Z,987.79
2018-12-02T09:47:57.535Z,987.80
2018-12-02T09:48:57.568Z,987.74
2018-12-02T09:49:57.526Z,987.75
2018-12-02T09:50:57.520Z,987.76
2018-12-02T09:51:57.516Z,987.79
2018-12-02T09:52:57.513Z,987.77
2018-12-02T09:53:57.509Z,987.78
2018-12-02T09:54:57.503Z,987.79
2018-12-02T09:55:57.500Z,987.79
2018-12-02T09:56:57.495Z,987.78
2018-12-02T09:57:57.491Z,987.77
2018-12-02T09:58:57.486Z,987.84
2018-12-02T09:59:57.481Z,987.81
2018-12-02T10:00:57.478Z,987.77
2018-12-02T10:01:57.475Z,987.74
2018-12-02T10:02:57.469Z,987.76
2018-12-02T10:03:57.465Z,987.81
2018-12-02T10:04:57.461Z,987.77
2018-12-02T10:05:57.457Z,987.78
2018-12-02T10:06:57.452Z,987.73
2018-12-02T10:07:57.448Z,987.72
2018-12-02T10:08:57.445Z,987.73
2018-12-02T10:09:58.261Z,987.75
2018-12-02T10:10:57.446Z,987.77
2018-12-02T10:11:57.433Z,987.72
2018-12-02T10:12:57.428Z,987.76
2018-12-02T10:13:57.425Z,987.73
2018-12-02T10:14:57.420Z,987.79
2018-12-02T10:15:57.416Z,987.78
2018-12-02T10:16:57.413Z,987.74
2018-12-02T10:17:57.408Z,987.71
2018-12-02T10:18:57.404Z,987.72
2018-12-02T10:19:57.400Z,987.74
2018-12-02T10:20:57.396Z,987.75
2018-12-02T10:21:57.393Z,987.75
2018-12-02T10:22:57.387Z,987.74
2018-12-02T10:23:57.383Z,987.73
2018-12-02T10:24:57.382Z,987.74
2018-12-02T10:25:57.377Z,987.73
2018-12-02T10:26:57.372Z,987.74
2018-12-02T10:27:57.367Z,987.74
2018-12-02T10:28:57.365Z,987.76
2018-12-02T10:29:57.360Z,987.75
2018-12-02T10:30:57.356Z,987.74
2018-12-02T10:31:57.359Z,987.70
2018-12-02T10:32:57.348Z,987.74
2018-12-02T10:33:57.346Z,987.72
2018-12-02T10:34:57.342Z,987.77
2018-12-02T10:35:57.337Z,987.72
2018-12-02T10:36:57.333Z,987.73
2018-12-02T10:37:57.332Z,987.74
2018-12-02T10:38:57.326Z,987.68
2018-12-02T10:39:57.322Z,987.72
2018-12-02T10:40:57.319Z,987.72
2018-12-02T10:41:57.314Z,987.69
2018-12-02T10:42:57.311Z,987.66
2018-12-02T10:43:57.308Z,987.68
2018-12-02T10:44:57.302Z,987.63
2018-12-02T10:45:57.299Z,987.67
2018-12-02T10:46:58.458Z,987.66
2018-12-02T10:47:57.292Z,987.64
2018-12-02T10:48:57.334Z,987.59
2018-12-02T10:49:57.284Z,987.61
2018-12-02T10:50:57.283Z,987.65
2018-12-02T10:51:57.278Z,987.60
2018-12-02T10:52:57.274Z,987.59
2018-12-02T10:53:57.270Z,987.66
2018-12-02T10:54:57.264Z,987.67
2018-12-02T10:55:57.262Z,987.58
2018-12-02T10:56:57.259Z,987.66
2018-12-02T10:57:57.255Z,987.58
2018-12-02T10:58:57.249Z,987.59
2018-12-02T10:59:57.247Z,987.69
2018-12-02T11:00:57.243Z,987.63
2018-12-02T11:01:57.239Z,987.62
2018-12-02T11:02:57.240Z,987.62
2018-12-02T11:03:57.234Z,987.62
2018-12-02T11:04:57.229Z,987.62
2018-12-02T11:05:57.225Z,987.65
2018-12-02T11:06:57.222Z,987.64
2018-12-02T11:07:57.218Z,987.62
2018-12-02T11:08:57.215Z,987.63
2018-12-02T11:09:57.211Z,987.62
2018-12-02T11:10:57.207Z,987.64
2018-12-02T11:11:57.204Z,987.58
2018-12-02T11:12:57.200Z,987.64
2018-12-02T11:13:57.197Z,987.56
2018-12-02T11:14:57.193Z,987.59
2018-12-02T11:15:57.188Z,987.57
2018-12-02T11:16:57.186Z,987.59
2018-12-02T11:17:57.182Z,987.60
2018-12-02T11:18:57.178Z,987.54
2018-12-02T11:19:57.175Z,987.57
2018-12-02T11:20:57.171Z,987.60
2018-12-02T11:21:57.167Z,987.57
2018-12-02T11:22:57.166Z,987.61
2018-12-02T11:23:57.162Z,987.61
2018-12-02T11:24:57.159Z,987.59
2018-12-02T11:25:57.155Z,987.62
2018-12-02T11:26:57.151Z,987.56
2018-12-02T11:27:57.147Z,987.57
2018-12-02T11:28:57.145Z,987.54
2018-12-02T11:29:57.140Z,987.56
2018-12-02T11:30:57.137Z,987.59
2018-12-02T11:31:57.132Z,987.55
2018-12-02T11:32:57.132Z,987.54
2018-12-02T11:33:57.127Z,987.55
2018-12-02T11:34:57.122Z,987.55
2018-12-02T11:35:57.124Z,987.53
2018-12-02T11:36:57.115Z,987.56
2018-12-02T11:37:57.114Z,987.56
2018-12-02T11:38:57.108Z,987.56
2018-12-02T11:39:57.109Z,987.55
2018-12-02T11:40:57.103Z,987.56
2018-12-02T11:41:57.099Z,987.56
2018-12-02T11:42:57.094Z,987.56
2018-12-02T11:43:57.092Z,987.57
2018-12-02T11:44:57.089Z,987.54
2018-12-02T11:45:57.087Z,987.64
2018-12-02T11:46:57.084Z,987.61
2018-12-02T11:47:57.079Z,987.60
2018-12-02T11:48:57.075Z,987.60
2018-12-02T11:49:57.072Z,987.58
2018-12-02T11:50:57.067Z,987.57
2018-12-02T11:51:57.065Z,987.59
2018-12-02T11:52:57.063Z,987.60
2018-12-02T11:53:57.059Z,987.63
2018-12-02T11:54:57.055Z,987.63
2018-12-02T11:55:57.052Z,987.60
2018-12-02T11:56:57.048Z,987.64
2018-12-02T11:57:57.046Z,987.63
2018-12-02T11:58:57.042Z,987.63
2018-12-02T11:59:57.038Z,987.66
2018-12-02T12:00:57.035Z,987.70
2018-12-02T12:01:57.033Z,987.65
2018-12-02T12:02:57.034Z,987.67
2018-12-02T12:03:57.028Z,987.64
2018-12-02T12:04:57.023Z,987.63
2018-12-02T12:05:57.020Z,987.64
2018-12-02T12:06:57.014Z,987.67
2018-12-02T12:07:57.013Z,987.68
2018-12-02T12:08:57.009Z,987.66
2018-12-02T12:09:57.007Z,987.66
2018-12-02T12:10:57.003Z,987.63
2018-12-02T12:11:57.000Z,987.67
2018-12-02T12:12:56.997Z,987.65
2018-12-02T12:13:56.995Z,987.66
2018-12-02T12:14:56.991Z,987.63
2018-12-02T12:15:56.990Z,987.66
2018-12-02T12:16:56.983Z,987.65
2018-12-02T12:17:56.982Z,987.65
2018-12-02T12:18:56.976Z,987.67
2018-12-02T12:19:56.974Z,987.65
2018-12-02T12:20:56.970Z,987.66
2018-12-02T12:21:56.970Z,987.70
2018-12-02T12:22:56.964Z,987.65
2018-12-02T12:23:56.962Z,987.74
2018-12-02T12:24:56.958Z,987.61
2018-12-02T12:25:56.957Z,987.67
2018-12-02T12:26:56.952Z,987.64
2018-12-02T12:27:56.949Z,987.59